sensor_id;sensor_type;location;lat;lon;timestamp;P1;durP1;ratioP1;P2;durP2;ratioP2
24096;SDS011;12275;48.550;12.132;2022-08-30T00:00:29;14.50;;;9.63;;
24096;SDS011;12275;48.550;12.132;2022-08-30T00:03:13;14.53;;;9.07;;
24096;SDS011;12275;48.550;12.132;2022-08-30T00:05:40;11.93;;;9.30;;
24096;SDS011;12275;48.550;12.132;2022-08-30T00:08:07;12.75;;;9.82;;
24096;SDS011;12275;48.550;12.132;2022-08-30T00:10:34;12.20;;;9.63;;
24096;SDS011;12275;48.550;12.132;2022-08-30T00:13:01;11.43;;;9.50;;
24096;SDS011;12275;48.550;12.132;2022-08-30T00:15:27;12.40;;;9.57;;
24096;SDS011;12275;48.550;12.132;2022-08-30T00:17:54;10.88;;;9.75;;
24096;SDS011;12275;48.550;12.132;2022-08-30T00:20:23;11.35;;;9.32;;
24096;SDS011;12275;48.550;12.132;2022-08-30T00:22:51;11.43;;;9.73;;
24096;SDS011;12275;48.550;12.132;2022-08-30T00:25:17;14.85;;;10.95;;
24096;SDS011;12275;48.550;12.132;2022-08-30T00:27:43;12.65;;;10.55;;
24096;SDS011;12275;48.550;12.132;2022-08-30T00:30:10;15.40;;;10.07;;
24096;SDS011;12275;48.550;12.132;2022-08-30T00:32:37;12.43;;;9.98;;
24096;SDS011;12275;48.550;12.132;2022-08-30T00:35:04;12.38;;;10.13;;
24096;SDS011;12275;48.550;12.132;2022-08-30T00:37:31;12.45;;;10.73;;
24096;SDS011;12275;48.550;12.132;2022-08-30T00:39:56;12.65;;;11.23;;
24096;SDS011;12275;48.550;12.132;2022-08-30T00:42:22;15.55;;;10.75;;
24096;SDS011;12275;48.550;12.132;2022-08-30T00:44:48;13.80;;;10.73;;
24096;SDS011;12275;48.550;12.132;2022-08-30T00:47:15;11.48;;;10.18;;
24096;SDS011;12275;48.550;12.132;2022-08-30T00:49:42;12.63;;;11.32;;
24096;SDS011;12275;48.550;12.132;2022-08-30T00:52:10;15.07;;;10.90;;
24096;SDS011;12275;48.550;12.132;2022-08-30T00:54:41;14.20;;;11.00;;
24096;SDS011;12275;48.550;12.132;2022-08-30T00:57:09;13.88;;;10.90;;
24096;SDS011;12275;48.550;12.132;2022-08-30T00:59:36;12.40;;;10.75;;
24096;SDS011;12275;48.550;12.132;2022-08-30T01:02:03;14.40;;;11.05;;
24096;SDS011;12275;48.550;12.132;2022-08-30T01:04:29;14.52;;;11.30;;
24096;SDS011;12275;48.550;12.132;2022-08-30T01:06:57;13.23;;;11.23;;
24096;SDS011;12275;48.550;12.132;2022-08-30T01:09:24;13.23;;;11.45;;
24096;SDS011;12275;48.550;12.132;2022-08-30T01:11:50;14.73;;;10.82;;
24096;SDS011;12275;48.550;12.132;2022-08-30T01:14:17;17.80;;;11.95;;
24096;SDS011;12275;48.550;12.132;2022-08-30T01:16:45;15.85;;;11.98;;
24096;SDS011;12275;48.550;12.132;2022-08-30T01:19:16;12.73;;;11.32;;
24096;SDS011;12275;48.550;12.132;2022-08-30T01:21:51;14.05;;;10.95;;
24096;SDS011;12275;48.550;12.132;2022-08-30T01:24:23;14.85;;;11.05;;
24096;SDS011;12275;48.550;12.132;2022-08-30T01:26:48;14.52;;;11.00;;
24096;SDS011;12275;48.550;12.132;2022-08-30T01:29:16;14.05;;;11.30;;
24096;SDS011;12275;48.550;12.132;2022-08-30T01:31:45;17.95;;;10.65;;
24096;SDS011;12275;48.550;12.132;2022-08-30T01:34:11;12.13;;;10.45;;
24096;SDS011;12275;48.550;12.132;2022-08-30T01:36:37;13.50;;;10.98;;
24096;SDS011;12275;48.550;12.132;2022-08-30T01:39:08;14.27;;;10.93;;
24096;SDS011;12275;48.550;12.132;2022-08-30T01:41:37;13.50;;;11.18;;
24096;SDS011;12275;48.550;12.132;2022-08-30T01:44:07;13.75;;;10.07;;
24096;SDS011;12275;48.550;12.132;2022-08-30T01:46:36;12.65;;;11.05;;
24096;SDS011;12275;48.550;12.132;2022-08-30T01:49:05;13.23;;;10.45;;
24096;SDS011;12275;48.550;12.132;2022-08-30T01:51:33;14.88;;;10.63;;
24096;SDS011;12275;48.550;12.132;2022-08-30T01:53:59;14.90;;;10.18;;
24096;SDS011;12275;48.550;12.132;2022-08-30T01:56:25;12.55;;;10.27;;
24096;SDS011;12275;48.550;12.132;2022-08-30T01:58:52;13.25;;;10.27;;
24096;SDS011;12275;48.550;12.132;2022-08-30T02:01:18;11.80;;;9.43;;
24096;SDS011;12275;48.550;12.132;2022-08-30T02:03:48;11.52;;;9.57;;
24096;SDS011;12275;48.550;12.132;2022-08-30T02:06:15;12.27;;;9.80;;
24096;SDS011;12275;48.550;12.132;2022-08-30T02:08:42;10.60;;;9.55;;
24096;SDS011;12275;48.550;12.132;2022-08-30T02:11:09;11.90;;;9.35;;
24096;SDS011;12275;48.550;12.132;2022-08-30T02:13:35;10.98;;;9.43;;
24096;SDS011;12275;48.550;12.132;2022-08-30T02:16:02;12.73;;;9.55;;
24096;SDS011;12275;48.550;12.132;2022-08-30T02:18:31;14.07;;;9.18;;
24096;SDS011;12275;48.550;12.132;2022-08-30T02:20:58;15.18;;;9.57;;
24096;SDS011;12275;48.550;12.132;2022-08-30T02:23:25;16.48;;;9.85;;
24096;SDS011;12275;48.550;12.132;2022-08-30T02:25:51;13.02;;;9.63;;
24096;SDS011;12275;48.550;12.132;2022-08-30T02:28:17;13.13;;;9.23;;
24096;SDS011;12275;48.550;12.132;2022-08-30T02:30:44;12.80;;;9.90;;
24096;SDS011;12275;48.550;12.132;2022-08-30T02:33:10;12.63;;;9.77;;
24096;SDS011;12275;48.550;12.132;2022-08-30T02:35:36;11.95;;;9.85;;
24096;SDS011;12275;48.550;12.132;2022-08-30T02:38:02;16.27;;;9.57;;
24096;SDS011;12275;48.550;12.132;2022-08-30T02:40:29;14.35;;;8.75;;
24096;SDS011;12275;48.550;12.132;2022-08-30T02:42:55;16.20;;;10.38;;
24096;SDS011;12275;48.550;12.132;2022-08-30T02:45:21;15.63;;;9.75;;
24096;SDS011;12275;48.550;12.132;2022-08-30T02:47:47;15.32;;;10.15;;
24096;SDS011;12275;48.550;12.132;2022-08-30T02:50:13;11.40;;;10.05;;
24096;SDS011;12275;48.550;12.132;2022-08-30T02:52:40;9.93;;;8.93;;
24096;SDS011;12275;48.550;12.132;2022-08-30T02:55:06;11.85;;;8.73;;
24096;SDS011;12275;48.550;12.132;2022-08-30T02:57:32;11.90;;;9.30;;
24096;SDS011;12275;48.550;12.132;2022-08-30T02:59:59;11.85;;;9.07;;
24096;SDS011;12275;48.550;12.132;2022-08-30T03:02:25;11.85;;;9.63;;
24096;SDS011;12275;48.550;12.132;2022-08-30T03:04:51;11.05;;;9.80;;
24096;SDS011;12275;48.550;12.132;2022-08-30T03:07:17;11.98;;;10.15;;
24096;SDS011;12275;48.550;12.132;2022-08-30T03:09:43;10.90;;;8.48;;
24096;SDS011;12275;48.550;12.132;2022-08-30T03:12:09;14.77;;;9.38;;
24096;SDS011;12275;48.550;12.132;2022-08-30T03:14:36;11.98;;;9.23;;
24096;SDS011;12275;48.550;12.132;2022-08-30T03:17:04;12.70;;;9.55;;
24096;SDS011;12275;48.550;12.132;2022-08-30T03:19:31;17.73;;;9.93;;
24096;SDS011;12275;48.550;12.132;2022-08-30T03:22:00;10.95;;;9.77;;
24096;SDS011;12275;48.550;12.132;2022-08-30T03:24:26;14.95;;;8.90;;
24096;SDS011;12275;48.550;12.132;2022-08-30T03:29:17;12.20;;;9.63;;
24096;SDS011;12275;48.550;12.132;2022-08-30T03:31:43;11.52;;;9.70;;
24096;SDS011;12275;48.550;12.132;2022-08-30T03:34:09;13.02;;;10.10;;
24096;SDS011;12275;48.550;12.132;2022-08-30T03:36:38;13.52;;;9.93;;
24096;SDS011;12275;48.550;12.132;2022-08-30T03:39:04;14.25;;;10.20;;
24096;SDS011;12275;48.550;12.132;2022-08-30T03:41:31;19.55;;;11.13;;
24096;SDS011;12275;48.550;12.132;2022-08-30T03:43:58;11.23;;;9.85;;
24096;SDS011;12275;48.550;12.132;2022-08-30T03:46:24;13.27;;;10.13;;
24096;SDS011;12275;48.550;12.132;2022-08-30T03:48:50;15.25;;;10.90;;
24096;SDS011;12275;48.550;12.132;2022-08-30T03:51:16;15.88;;;10.35;;
24096;SDS011;12275;48.550;12.132;2022-08-30T03:53:42;12.38;;;10.15;;
24096;SDS011;12275;48.550;12.132;2022-08-30T03:56:08;15.80;;;9.88;;
24096;SDS011;12275;48.550;12.132;2022-08-30T03:58:34;11.82;;;9.38;;
24096;SDS011;12275;48.550;12.132;2022-08-30T04:01:00;11.88;;;10.60;;
24096;SDS011;12275;48.550;12.132;2022-08-30T04:03:26;13.43;;;9.80;;
24096;SDS011;12275;48.550;12.132;2022-08-30T04:05:52;14.82;;;10.38;;
24096;SDS011;12275;48.550;12.132;2022-08-30T04:08:18;14.20;;;10.30;;
24096;SDS011;12275;48.550;12.132;2022-08-30T04:10:45;15.65;;;9.73;;
24096;SDS011;12275;48.550;12.132;2022-08-30T04:13:12;11.55;;;10.35;;
24096;SDS011;12275;48.550;12.132;2022-08-30T04:15:38;14.07;;;10.80;;
24096;SDS011;12275;48.550;12.132;2022-08-30T04:18:04;12.18;;;10.60;;
24096;SDS011;12275;48.550;12.132;2022-08-30T04:20:30;12.45;;;10.32;;
24096;SDS011;12275;48.550;12.132;2022-08-30T04:22:56;14.23;;;9.90;;
24096;SDS011;12275;48.550;12.132;2022-08-30T04:25:22;12.07;;;10.88;;
24096;SDS011;12275;48.550;12.132;2022-08-30T04:27:48;12.63;;;10.38;;
24096;SDS011;12275;48.550;12.132;2022-08-30T04:30:14;12.32;;;10.02;;
24096;SDS011;12275;48.550;12.132;2022-08-30T04:32:41;14.40;;;10.10;;
24096;SDS011;12275;48.550;12.132;2022-08-30T04:35:07;13.55;;;10.52;;
24096;SDS011;12275;48.550;12.132;2022-08-30T04:37:33;11.70;;;10.50;;
24096;SDS011;12275;48.550;12.132;2022-08-30T04:39:59;16.38;;;10.77;;
24096;SDS011;12275;48.550;12.132;2022-08-30T04:42:25;11.32;;;10.05;;
24096;SDS011;12275;48.550;12.132;2022-08-30T04:44:56;15.05;;;9.70;;
24096;SDS011;12275;48.550;12.132;2022-08-30T04:47:22;12.27;;;9.77;;
24096;SDS011;12275;48.550;12.132;2022-08-30T04:49:48;11.77;;;9.98;;
24096;SDS011;12275;48.550;12.132;2022-08-30T04:52:13;16.70;;;10.82;;
24096;SDS011;12275;48.550;12.132;2022-08-30T04:54:39;12.60;;;10.13;;
24096;SDS011;12275;48.550;12.132;2022-08-30T04:57:05;24.83;;;10.80;;
24096;SDS011;12275;48.550;12.132;2022-08-30T04:59:31;14.38;;;9.95;;
24096;SDS011;12275;48.550;12.132;2022-08-30T05:01:57;11.10;;;9.90;;
24096;SDS011;12275;48.550;12.132;2022-08-30T05:04:23;11.18;;;9.65;;
24096;SDS011;12275;48.550;12.132;2022-08-30T05:06:49;19.98;;;10.68;;
24096;SDS011;12275;48.550;12.132;2022-08-30T05:09:15;15.32;;;10.75;;
24096;SDS011;12275;48.550;12.132;2022-08-30T05:11:40;19.75;;;11.60;;
24096;SDS011;12275;48.550;12.132;2022-08-30T05:14:07;13.15;;;11.80;;
24096;SDS011;12275;48.550;12.132;2022-08-30T05:16:33;15.48;;;12.63;;
24096;SDS011;12275;48.550;12.132;2022-08-30T05:18:59;19.52;;;12.25;;
24096;SDS011;12275;48.550;12.132;2022-08-30T05:21:25;18.70;;;11.88;;
24096;SDS011;12275;48.550;12.132;2022-08-30T05:23:53;12.25;;;10.95;;
24096;SDS011;12275;48.550;12.132;2022-08-30T05:26:21;20.23;;;13.05;;
24096;SDS011;12275;48.550;12.132;2022-08-30T05:28:49;14.07;;;11.48;;
24096;SDS011;12275;48.550;12.132;2022-08-30T05:33:40;17.73;;;13.32;;
24096;SDS011;12275;48.550;12.132;2022-08-30T05:36:07;17.92;;;12.52;;
24096;SDS011;12275;48.550;12.132;2022-08-30T05:38:34;15.15;;;12.68;;
24096;SDS011;12275;48.550;12.132;2022-08-30T05:41:00;16.20;;;12.30;;
24096;SDS011;12275;48.550;12.132;2022-08-30T05:43:26;15.93;;;12.63;;
24096;SDS011;12275;48.550;12.132;2022-08-30T05:46:05;20.52;;;13.10;;
24096;SDS011;12275;48.550;12.132;2022-08-30T05:48:37;19.17;;;13.93;;
24096;SDS011;12275;48.550;12.132;2022-08-30T05:51:05;21.25;;;14.63;;
24096;SDS011;12275;48.550;12.132;2022-08-30T05:53:36;21.40;;;13.68;;
24096;SDS011;12275;48.550;12.132;2022-08-30T06:00:55;16.48;;;13.98;;
24096;SDS011;12275;48.550;12.132;2022-08-30T06:03:21;16.75;;;13.85;;
24096;SDS011;12275;48.550;12.132;2022-08-30T06:05:47;21.77;;;14.32;;
24096;SDS011;12275;48.550;12.132;2022-08-30T06:08:12;21.42;;;14.55;;
24096;SDS011;12275;48.550;12.132;2022-08-30T06:10:38;22.40;;;15.73;;
24096;SDS011;12275;48.550;12.132;2022-08-30T06:13:04;22.45;;;15.13;;
24096;SDS011;12275;48.550;12.132;2022-08-30T06:15:30;22.98;;;16.15;;
24096;SDS011;12275;48.550;12.132;2022-08-30T06:17:55;20.52;;;15.18;;
24096;SDS011;12275;48.550;12.132;2022-08-30T06:20:21;24.67;;;17.30;;
24096;SDS011;12275;48.550;12.132;2022-08-30T06:22:47;22.35;;;16.92;;
24096;SDS011;12275;48.550;12.132;2022-08-30T06:25:13;22.58;;;17.15;;
24096;SDS011;12275;48.550;12.132;2022-08-30T06:27:40;18.77;;;16.60;;
24096;SDS011;12275;48.550;12.132;2022-08-30T06:30:06;23.48;;;16.05;;
24096;SDS011;12275;48.550;12.132;2022-08-30T06:32:34;17.65;;;15.23;;
24096;SDS011;12275;48.550;12.132;2022-08-30T06:35:01;17.25;;;15.45;;
24096;SDS011;12275;48.550;12.132;2022-08-30T06:37:28;18.55;;;15.00;;
24096;SDS011;12275;48.550;12.132;2022-08-30T06:39:55;21.48;;;15.95;;
24096;SDS011;12275;48.550;12.132;2022-08-30T06:42:21;20.33;;;16.20;;
24096;SDS011;12275;48.550;12.132;2022-08-30T06:44:47;23.10;;;17.05;;
24096;SDS011;12275;48.550;12.132;2022-08-30T06:47:13;30.13;;;19.08;;
24096;SDS011;12275;48.550;12.132;2022-08-30T06:49:39;26.67;;;17.65;;
24096;SDS011;12275;48.550;12.132;2022-08-30T06:52:04;23.73;;;18.45;;
24096;SDS011;12275;48.550;12.132;2022-08-30T06:54:30;22.58;;;17.98;;
24096;SDS011;12275;48.550;12.132;2022-08-30T06:56:56;24.08;;;16.80;;
24096;SDS011;12275;48.550;12.132;2022-08-30T06:59:21;21.02;;;16.08;;
24096;SDS011;12275;48.550;12.132;2022-08-30T07:01:47;18.48;;;16.42;;
24096;SDS011;12275;48.550;12.132;2022-08-30T07:04:13;24.30;;;15.70;;
24096;SDS011;12275;48.550;12.132;2022-08-30T07:06:39;24.25;;;17.55;;
24096;SDS011;12275;48.550;12.132;2022-08-30T07:09:04;25.02;;;16.55;;
24096;SDS011;12275;48.550;12.132;2022-08-30T07:11:32;22.40;;;17.45;;
24096;SDS011;12275;48.550;12.132;2022-08-30T07:14:00;24.95;;;18.58;;
24096;SDS011;12275;48.550;12.132;2022-08-30T07:16:26;25.98;;;18.95;;
24096;SDS011;12275;48.550;12.132;2022-08-30T07:18:53;24.38;;;19.00;;
24096;SDS011;12275;48.550;12.132;2022-08-30T07:21:21;24.40;;;19.45;;
24096;SDS011;12275;48.550;12.132;2022-08-30T07:23:50;24.10;;;18.95;;
24096;SDS011;12275;48.550;12.132;2022-08-30T07:26:18;24.38;;;18.38;;
24096;SDS011;12275;48.550;12.132;2022-08-30T07:28:46;26.73;;;17.70;;
24096;SDS011;12275;48.550;12.132;2022-08-30T07:31:13;21.77;;;18.08;;
24096;SDS011;12275;48.550;12.132;2022-08-30T07:33:41;22.42;;;16.92;;
24096;SDS011;12275;48.550;12.132;2022-08-30T07:36:07;22.55;;;16.45;;
24096;SDS011;12275;48.550;12.132;2022-08-30T07:38:33;19.95;;;17.83;;
24096;SDS011;12275;48.550;12.132;2022-08-30T07:40:58;21.00;;;16.67;;
24096;SDS011;12275;48.550;12.132;2022-08-30T07:43:28;21.60;;;16.80;;
24096;SDS011;12275;48.550;12.132;2022-08-30T07:45:59;18.30;;;15.80;;
24096;SDS011;12275;48.550;12.132;2022-08-30T07:48:29;17.33;;;14.90;;
24096;SDS011;12275;48.550;12.132;2022-08-30T07:50:54;21.70;;;15.20;;
24096;SDS011;12275;48.550;12.132;2022-08-30T07:53:20;16.83;;;14.45;;
24096;SDS011;12275;48.550;12.132;2022-08-30T07:55:46;22.00;;;14.15;;
24096;SDS011;12275;48.550;12.132;2022-08-30T07:58:11;15.43;;;13.82;;
24096;SDS011;12275;48.550;12.132;2022-08-30T08:00:37;17.05;;;15.35;;
24096;SDS011;12275;48.550;12.132;2022-08-30T08:03:04;17.13;;;14.23;;
24096;SDS011;12275;48.550;12.132;2022-08-30T08:05:34;18.08;;;14.43;;
24096;SDS011;12275;48.550;12.132;2022-08-30T08:08:01;18.23;;;14.02;;
24096;SDS011;12275;48.550;12.132;2022-08-30T08:10:27;16.75;;;14.77;;
24096;SDS011;12275;48.550;12.132;2022-08-30T08:12:52;21.77;;;17.15;;
24096;SDS011;12275;48.550;12.132;2022-08-30T08:15:18;18.00;;;13.98;;
24096;SDS011;12275;48.550;12.132;2022-08-30T08:17:44;19.65;;;13.55;;
24096;SDS011;12275;48.550;12.132;2022-08-30T08:20:09;16.83;;;13.40;;
24096;SDS011;12275;48.550;12.132;2022-08-30T08:22:35;17.90;;;12.93;;
24096;SDS011;12275;48.550;12.132;2022-08-30T08:25:01;13.68;;;11.80;;
24096;SDS011;12275;48.550;12.132;2022-08-30T08:27:26;16.10;;;11.88;;
24096;SDS011;12275;48.550;12.132;2022-08-30T08:29:53;15.30;;;12.63;;
24096;SDS011;12275;48.550;12.132;2022-08-30T08:32:18;14.23;;;11.57;;
24096;SDS011;12275;48.550;12.132;2022-08-30T08:34:44;12.23;;;11.02;;
24096;SDS011;12275;48.550;12.132;2022-08-30T08:37:10;16.67;;;11.90;;
24096;SDS011;12275;48.550;12.132;2022-08-30T08:39:35;12.60;;;10.95;;
24096;SDS011;12275;48.550;12.132;2022-08-30T08:42:15;16.38;;;10.95;;
24096;SDS011;12275;48.550;12.132;2022-08-30T08:44:51;12.50;;;11.30;;
24096;SDS011;12275;48.550;12.132;2022-08-30T08:47:25;12.30;;;10.20;;
24096;SDS011;12275;48.550;12.132;2022-08-30T08:50:06;10.75;;;9.65;;
24096;SDS011;12275;48.550;12.132;2022-08-30T08:55:24;10.05;;;9.02;;
24096;SDS011;12275;48.550;12.132;2022-08-30T08:57:50;11.98;;;8.10;;
24096;SDS011;12275;48.550;12.132;2022-08-30T09:00:16;10.98;;;7.93;;
24096;SDS011;12275;48.550;12.132;2022-08-30T09:02:47;10.25;;;8.30;;
24096;SDS011;12275;48.550;12.132;2022-08-30T09:08:00;10.02;;;8.68;;
24096;SDS011;12275;48.550;12.132;2022-08-30T09:10:28;11.37;;;8.40;;
24096;SDS011;12275;48.550;12.132;2022-08-30T09:12:57;8.27;;;7.45;;
24096;SDS011;12275;48.550;12.132;2022-08-30T09:15:24;8.30;;;7.13;;
24096;SDS011;12275;48.550;12.132;2022-08-30T09:20:39;7.85;;;6.93;;
24096;SDS011;12275;48.550;12.132;2022-08-30T09:25:51;9.90;;;7.60;;
24096;SDS011;12275;48.550;12.132;2022-08-30T09:28:20;9.35;;;6.65;;
24096;SDS011;12275;48.550;12.132;2022-08-30T09:33:40;8.88;;;7.10;;
24096;SDS011;12275;48.550;12.132;2022-08-30T09:36:39;11.15;;;7.72;;
24096;SDS011;12275;48.550;12.132;2022-08-30T09:41:45;8.07;;;7.22;;
24096;SDS011;12275;48.550;12.132;2022-08-30T09:44:18;8.20;;;6.75;;
24096;SDS011;12275;48.550;12.132;2022-08-30T09:46:50;10.10;;;7.25;;
24096;SDS011;12275;48.550;12.132;2022-08-30T09:49:37;9.90;;;6.88;;
24096;SDS011;12275;48.550;12.132;2022-08-30T10:00:33;7.63;;;6.43;;
24096;SDS011;12275;48.550;12.132;2022-08-30T10:08:39;9.27;;;5.85;;
24096;SDS011;12275;48.550;12.132;2022-08-30T10:17:08;6.90;;;6.10;;
24096;SDS011;12275;48.550;12.132;2022-08-30T10:22:50;10.43;;;6.35;;
24096;SDS011;12275;48.550;12.132;2022-08-30T10:25:25;12.00;;;6.78;;
24096;SDS011;12275;48.550;12.132;2022-08-30T10:27:54;7.70;;;5.88;;
24096;SDS011;12275;48.550;12.132;2022-08-30T10:30:41;7.32;;;5.90;;
24096;SDS011;12275;48.550;12.132;2022-08-30T10:33:20;7.10;;;5.55;;
24096;SDS011;12275;48.550;12.132;2022-08-30T10:35:51;7.72;;;5.85;;
24096;SDS011;12275;48.550;12.132;2022-08-30T10:38:24;7.32;;;6.63;;
24096;SDS011;12275;48.550;12.132;2022-08-30T10:46:33;8.40;;;5.95;;
24096;SDS011;12275;48.550;12.132;2022-08-30T10:49:01;7.30;;;5.70;;
24096;SDS011;12275;48.550;12.132;2022-08-30T10:51:30;7.68;;;5.22;;
24096;SDS011;12275;48.550;12.132;2022-08-30T10:54:15;6.30;;;5.70;;
24096;SDS011;12275;48.550;12.132;2022-08-30T10:56:46;9.68;;;5.93;;
24096;SDS011;12275;48.550;12.132;2022-08-30T10:59:15;7.15;;;5.88;;
24096;SDS011;12275;48.550;12.132;2022-08-30T11:12:56;6.70;;;6.00;;
24096;SDS011;12275;48.550;12.132;2022-08-30T11:15:25;5.72;;;5.13;;
24096;SDS011;12275;48.550;12.132;2022-08-30T11:17:59;8.68;;;4.95;;
24096;SDS011;12275;48.550;12.132;2022-08-30T11:25:57;7.82;;;5.65;;
24096;SDS011;12275;48.550;12.132;2022-08-30T11:42:11;6.13;;;5.40;;
24096;SDS011;12275;48.550;12.132;2022-08-30T11:44:37;7.28;;;5.60;;
24096;SDS011;12275;48.550;12.132;2022-08-30T11:47:35;7.20;;;5.85;;
24096;SDS011;12275;48.550;12.132;2022-08-30T11:50:11;6.07;;;5.47;;
24096;SDS011;12275;48.550;12.132;2022-08-30T11:52:46;9.98;;;5.85;;
24096;SDS011;12275;48.550;12.132;2022-08-30T11:55:40;6.35;;;5.43;;
24096;SDS011;12275;48.550;12.132;2022-08-30T11:58:24;8.00;;;5.22;;
24096;SDS011;12275;48.550;12.132;2022-08-30T12:03:57;5.72;;;5.03;;
24096;SDS011;12275;48.550;12.132;2022-08-30T12:09:05;8.35;;;4.85;;
24096;SDS011;12275;48.550;12.132;2022-08-30T12:14:06;7.97;;;5.82;;
24096;SDS011;12275;48.550;12.132;2022-08-30T12:16:39;6.05;;;4.93;;
24096;SDS011;12275;48.550;12.132;2022-08-30T12:19:27;6.13;;;5.20;;
24096;SDS011;12275;48.550;12.132;2022-08-30T12:21:55;5.55;;;5.05;;
24096;SDS011;12275;48.550;12.132;2022-08-30T12:24:31;7.68;;;5.43;;
24096;SDS011;12275;48.550;12.132;2022-08-30T12:27:20;8.68;;;4.57;;
24096;SDS011;12275;48.550;12.132;2022-08-30T12:29:49;6.13;;;4.40;;
24096;SDS011;12275;48.550;12.132;2022-08-30T12:32:17;11.20;;;5.40;;
24096;SDS011;12275;48.550;12.132;2022-08-30T12:34:50;10.07;;;5.40;;
24096;SDS011;12275;48.550;12.132;2022-08-30T12:37:23;9.93;;;4.95;;
24096;SDS011;12275;48.550;12.132;2022-08-30T12:40:09;5.40;;;4.72;;
24096;SDS011;12275;48.550;12.132;2022-08-30T12:42:51;8.95;;;5.22;;
24096;SDS011;12275;48.550;12.132;2022-08-30T12:45:23;9.10;;;5.57;;
24096;SDS011;12275;48.550;12.132;2022-08-30T12:48:03;4.95;;;4.53;;
24096;SDS011;12275;48.550;12.132;2022-08-30T12:50:52;6.38;;;4.72;;
24096;SDS011;12275;48.550;12.132;2022-08-30T12:53:28;6.10;;;5.50;;
24096;SDS011;12275;48.550;12.132;2022-08-30T12:55:57;10.23;;;4.82;;
24096;SDS011;12275;48.550;12.132;2022-08-30T13:03:36;4.80;;;4.40;;
24096;SDS011;12275;48.550;12.132;2022-08-30T13:06:03;7.97;;;4.88;;
24096;SDS011;12275;48.550;12.132;2022-08-30T13:08:33;5.10;;;4.60;;
24096;SDS011;12275;48.550;12.132;2022-08-30T13:11:05;6.95;;;4.60;;
24096;SDS011;12275;48.550;12.132;2022-08-30T13:13:43;6.38;;;5.07;;
24096;SDS011;12275;48.550;12.132;2022-08-30T13:18:42;8.38;;;4.78;;
24096;SDS011;12275;48.550;12.132;2022-08-30T13:23:51;4.75;;;4.35;;
24096;SDS011;12275;48.550;12.132;2022-08-30T13:26:30;5.90;;;4.75;;
24096;SDS011;12275;48.550;12.132;2022-08-30T13:29:01;9.65;;;4.32;;
24096;SDS011;12275;48.550;12.132;2022-08-30T13:31:29;5.20;;;4.63;;
24096;SDS011;12275;48.550;12.132;2022-08-30T13:33:56;7.38;;;4.80;;
24096;SDS011;12275;48.550;12.132;2022-08-30T13:36:29;7.30;;;4.32;;
24096;SDS011;12275;48.550;12.132;2022-08-30T13:38:57;5.60;;;4.43;;
24096;SDS011;12275;48.550;12.132;2022-08-30T13:41:23;5.38;;;4.88;;
24096;SDS011;12275;48.550;12.132;2022-08-30T13:43:50;5.00;;;4.50;;
24096;SDS011;12275;48.550;12.132;2022-08-30T13:46:16;4.40;;;3.97;;
24096;SDS011;12275;48.550;12.132;2022-08-30T13:48:42;5.22;;;4.72;;
24096;SDS011;12275;48.550;12.132;2022-08-30T13:51:08;6.22;;;4.53;;
24096;SDS011;12275;48.550;12.132;2022-08-30T13:53:34;4.78;;;4.25;;
24096;SDS011;12275;48.550;12.132;2022-08-30T13:56:00;7.10;;;4.68;;
24096;SDS011;12275;48.550;12.132;2022-08-30T13:58:27;5.28;;;4.68;;
24096;SDS011;12275;48.550;12.132;2022-08-30T14:00:53;5.47;;;4.47;;
24096;SDS011;12275;48.550;12.132;2022-08-30T14:03:19;7.18;;;3.90;;
24096;SDS011;12275;48.550;12.132;2022-08-30T14:05:45;4.28;;;3.75;;
24096;SDS011;12275;48.550;12.132;2022-08-30T14:08:12;4.72;;;4.22;;
24096;SDS011;12275;48.550;12.132;2022-08-30T14:10:40;7.15;;;5.40;;
24096;SDS011;12275;48.550;12.132;2022-08-30T14:13:06;8.40;;;5.75;;
24096;SDS011;12275;48.550;12.132;2022-08-30T14:15:34;8.07;;;5.97;;
24096;SDS011;12275;48.550;12.132;2022-08-30T14:18:01;5.03;;;4.63;;
24096;SDS011;12275;48.550;12.132;2022-08-30T14:20:27;8.48;;;4.50;;
24096;SDS011;12275;48.550;12.132;2022-08-30T14:22:53;5.65;;;4.10;;
24096;SDS011;12275;48.550;12.132;2022-08-30T14:25:19;5.50;;;4.30;;
24096;SDS011;12275;48.550;12.132;2022-08-30T14:27:45;7.75;;;4.30;;
24096;SDS011;12275;48.550;12.132;2022-08-30T14:30:10;5.32;;;4.43;;
24096;SDS011;12275;48.550;12.132;2022-08-30T14:32:36;7.05;;;4.50;;
24096;SDS011;12275;48.550;12.132;2022-08-30T14:35:02;7.82;;;4.90;;
24096;SDS011;12275;48.550;12.132;2022-08-30T14:37:28;5.68;;;4.45;;
24096;SDS011;12275;48.550;12.132;2022-08-30T14:39:54;10.70;;;5.72;;
24096;SDS011;12275;48.550;12.132;2022-08-30T14:42:19;7.72;;;6.88;;
24096;SDS011;12275;48.550;12.132;2022-08-30T14:44:45;5.88;;;5.00;;
24096;SDS011;12275;48.550;12.132;2022-08-30T14:47:11;4.85;;;4.50;;
24096;SDS011;12275;48.550;12.132;2022-08-30T14:49:36;4.65;;;4.35;;
24096;SDS011;12275;48.550;12.132;2022-08-30T14:52:02;5.43;;;4.50;;
24096;SDS011;12275;48.550;12.132;2022-08-30T14:54:28;5.43;;;4.60;;
24096;SDS011;12275;48.550;12.132;2022-08-30T14:56:55;4.90;;;4.47;;
24096;SDS011;12275;48.550;12.132;2022-08-30T14:59:21;5.38;;;4.78;;
24096;SDS011;12275;48.550;12.132;2022-08-30T15:01:48;5.90;;;4.80;;
24096;SDS011;12275;48.550;12.132;2022-08-30T15:04:14;7.53;;;5.03;;
24096;SDS011;12275;48.550;12.132;2022-08-30T15:06:42;5.53;;;4.50;;
24096;SDS011;12275;48.550;12.132;2022-08-30T15:09:10;8.13;;;4.40;;
24096;SDS011;12275;48.550;12.132;2022-08-30T15:11:38;6.00;;;4.93;;
24096;SDS011;12275;48.550;12.132;2022-08-30T15:14:04;7.82;;;5.40;;
24096;SDS011;12275;48.550;12.132;2022-08-30T15:16:31;8.10;;;6.53;;
24096;SDS011;12275;48.550;12.132;2022-08-30T15:18:59;10.93;;;9.10;;
24096;SDS011;12275;48.550;12.132;2022-08-30T15:21:30;10.35;;;7.15;;
24096;SDS011;12275;48.550;12.132;2022-08-30T15:23:59;10.55;;;9.18;;
24096;SDS011;12275;48.550;12.132;2022-08-30T15:26:26;10.65;;;8.45;;
24096;SDS011;12275;48.550;12.132;2022-08-30T15:28:52;8.77;;;7.93;;
24096;SDS011;12275;48.550;12.132;2022-08-30T15:31:19;6.68;;;6.05;;
24096;SDS011;12275;48.550;12.132;2022-08-30T15:33:47;9.75;;;6.32;;
24096;SDS011;12275;48.550;12.132;2022-08-30T15:36:13;6.60;;;5.78;;
24096;SDS011;12275;48.550;12.132;2022-08-30T15:38:39;7.10;;;6.35;;
24096;SDS011;12275;48.550;12.132;2022-08-30T15:41:07;7.75;;;5.38;;
24096;SDS011;12275;48.550;12.132;2022-08-30T15:43:34;6.13;;;5.60;;
24096;SDS011;12275;48.550;12.132;2022-08-30T15:48:59;9.75;;;6.00;;
24096;SDS011;12275;48.550;12.132;2022-08-30T15:51:27;9.93;;;6.80;;
24096;SDS011;12275;48.550;12.132;2022-08-30T15:53:54;9.63;;;6.50;;
24096;SDS011;12275;48.550;12.132;2022-08-30T15:56:20;6.78;;;6.18;;
24096;SDS011;12275;48.550;12.132;2022-08-30T15:58:46;7.72;;;6.70;;
24096;SDS011;12275;48.550;12.132;2022-08-30T16:01:12;8.15;;;5.40;;
24096;SDS011;12275;48.550;12.132;2022-08-30T16:03:39;15.02;;;11.88;;
24096;SDS011;12275;48.550;12.132;2022-08-30T16:06:12;8.93;;;7.35;;
24096;SDS011;12275;48.550;12.132;2022-08-30T16:08:40;8.50;;;6.90;;
24096;SDS011;12275;48.550;12.132;2022-08-30T16:11:07;6.35;;;5.75;;
24096;SDS011;12275;48.550;12.132;2022-08-30T16:13:34;6.72;;;6.10;;